Time;durP1;ratioP1;P1;durP2;ratioP2;P2;SDS_P1;SDS_P2;PMS_P1;PMS_P2;Temp;Humidity;BMP_temperature;BMP_pressure;BME280_temperature;BME280_humidity;BME280_pressure;Samples;Min_cycle;Max_cycle;Signal;HPM_P1;HPM_P2
2023/05/14 00:00:19;;;;;;;8.32;6.78;;;19.20;69.80;;;;;;5095895;28;20019;-83
2023/05/14 00:02:45;;;;;;;8.80;7.10;;;19.20;69.70;;;;;;5096108;28;20181;-83
2023/05/14 00:05:11;;;;;;;9.05;6.90;;;19.20;70.30;;;;;;5095927;28;20031;-82
2023/05/14 00:07:36;;;;;;;8.68;6.95;;;19.10;70.20;;;;;;5112821;28;20023;-83
2023/05/14 00:10:02;;;;;;;9.63;7.00;;;19.10;70.50;;;;;;5095923;28;20015;-83
2023/05/14 00:12:28;;;;;;;9.07;7.05;;;19.10;70.80;;;;;;5112755;28;20426;-83
2023/05/14 00:14:55;;;;;;;10.63;7.38;;;19.00;70.70;;;;;;5095996;28;20020;-83
2023/05/14 00:17:21;;;;;;;11.15;7.78;;;19.00;70.90;;;;;;5112641;28;20024;-83
2023/05/14 00:19:46;;;;;;;12.90;8.18;;;19.00;70.90;;;;;;5112449;28;20029;-83
2023/05/14 00:22:12;;;;;;;10.38;7.60;;;18.90;70.80;;;;;;5095564;28;20156;-84
2023/05/14 00:24:38;;;;;;;13.38;8.55;;;18.90;70.80;;;;;;5095557;28;20028;-83
2023/05/14 00:27:04;;;;;;;10.15;7.80;;;18.80;70.80;;;;;;5112138;28;20094;-83
2023/05/14 00:29:29;;;;;;;11.95;7.95;;;18.70;71.20;;;;;;5112513;28;20357;-83
2023/05/14 00:31:55;;;;;;;10.20;8.05;;;18.60;71.90;;;;;;5078554;28;20055;-83
2023/05/14 00:34:21;;;;;;;11.88;8.75;;;18.60;72.10;;;;;;5095203;28;21144;-83
2023/05/14 00:36:46;;;;;;;12.43;8.68;;;18.50;72.10;;;;;;5112415;28;20526;-83
2023/05/14 00:39:13;;;;;;;10.13;8.02;;;18.40;72.60;;;;;;5112355;28;20054;-83
2023/05/14 00:41:39;;;;;;;11.38;8.73;;;18.40;73.10;;;;;;5113922;28;20027;-83
2023/05/14 00:44:04;;;;;;;13.30;9.13;;;18.30;72.80;;;;;;5078583;28;20039;-83
2023/05/14 00:46:30;;;;;;;13.48;8.68;;;18.40;72.60;;;;;;5112402;28;20035;-83
2023/05/14 00:48:58;;;;;;;11.30;8.45;;;18.30;72.40;;;;;;5095514;28;20118;-83
2023/05/14 00:51:24;;;;;;;12.15;8.68;;;18.30;72.70;;;;;;5095915;28;20027;-83
2023/05/14 00:53:50;;;;;;;10.63;9.02;;;18.30;73.10;;;;;;5112633;28;20457;-83
2023/05/14 00:56:17;;;;;;;11.98;8.75;;;18.30;73.20;;;;;;5112229;28;20489;-83
2023/05/14 00:58:42;;;;;;;12.35;8.73;;;18.20;73.10;;;;;;5095387;28;20028;-83
2023/05/14 01:01:08;;;;;;;11.77;8.38;;;18.20;74.10;;;;;;5112505;28;20497;-83
2023/05/14 01:03:35;;;;;;;11.18;8.50;;;18.20;73.40;;;;;;5112557;28;20503;-84
2023/05/14 01:06:38;;;;;;;12.48;8.65;;;18.20;73.40;;;;;;5095418;28;20454;-83
2023/05/14 01:09:29;;;;;;;14.07;8.45;;;18.20;73.10;;;;;;5112547;28;20019;-83
2023/05/14 01:12:15;;;;;;;14.18;8.93;;;18.20;73.00;;;;;;5111991;28;20495;-83
2023/05/14 01:14:57;;;;;;;11.88;8.70;;;18.20;74.00;;;;;;5112242;28;20047;-83
2023/05/14 01:17:28;;;;;;;13.40;9.07;;;18.20;73.10;;;;;;5113811;28;20472;-83
2023/05/14 01:19:55;;;;;;;11.13;8.73;;;18.10;73.00;;;;;;5112699;28;20035;-83
2023/05/14 01:22:21;;;;;;;14.20;9.05;;;18.10;73.10;;;;;;5095293;28;20027;-83
2023/05/14 01:24:47;;;;;;;11.77;9.00;;;18.00;73.10;;;;;;5095569;28;20036;-83
2023/05/14 01:27:30;;;;;;;15.00;8.65;;;18.00;73.20;;;;;;5095069;28;20028;-83
2023/05/14 01:30:10;;;;;;;12.25;8.75;;;18.00;73.40;;;;;;5112304;28;20024;-83
2023/05/14 01:32:39;;;;;;;14.55;9.27;;;17.90;73.50;;;;;;5112375;28;20027;-83
2023/05/14 01:35:07;;;;;;;12.80;10.07;;;17.90;74.10;;;;;;5094788;28;20496;-83
2023/05/14 01:37:34;;;;;;;12.95;8.88;;;17.80;74.50;;;;;;5111751;28;20051;-83
2023/05/14 01:40:00;;;;;;;11.10;9.57;;;17.80;74.70;;;;;;5097274;28;20052;-83
2023/05/14 01:42:27;;;;;;;14.68;9.35;;;17.80;74.60;;;;;;5098916;28;20122;-83
2023/05/14 01:44:53;;;;;;;11.85;8.98;;;17.70;74.50;;;;;;5115472;28;20019;-83
2023/05/14 01:47:19;;;;;;;16.85;9.73;;;17.70;74.80;;;;;;5115718;28;20126;-83
2023/05/14 01:49:45;;;;;;;16.77;9.38;;;17.70;75.10;;;;;;5081663;28;20119;-83
2023/05/14 01:52:10;;;;;;;16.35;9.60;;;17.70;75.30;;;;;;5098447;28;20031;-83
2023/05/14 01:54:36;;;;;;;12.95;9.43;;;17.60;75.20;;;;;;5115578;28;20024;-83
2023/05/14 01:57:02;;;;;;;12.52;9.30;;;17.60;75.10;;;;;;5098657;28;20028;-84
2023/05/14 01:59:28;;;;;;;12.65;9.07;;;17.60;75.10;;;;;;5081486;28;20676;-83
2023/05/14 02:01:54;;;;;;;13.45;9.60;;;17.60;75.60;;;;;;5115202;28;20042;-83
2023/05/14 02:04:20;;;;;;;12.93;9.15;;;17.60;75.90;;;;;;5081284;28;20027;-83
2023/05/14 02:06:45;;;;;;;15.18;9.32;;;17.50;75.80;;;;;;5115052;28;20028;-83
2023/05/14 02:09:11;;;;;;;13.07;9.48;;;17.50;76.10;;;;;;5115110;28;20027;-83
2023/05/14 02:11:37;;;;;;;13.40;9.40;;;17.50;76.10;;;;;;5081105;28;20476;-83
2023/05/14 02:14:02;;;;;;;14.60;9.60;;;17.50;75.80;;;;;;5097829;28;20027;-83
2023/05/14 02:16:28;;;;;;;13.95;9.10;;;17.50;75.60;;;;;;5081163;28;20437;-83
2023/05/14 02:18:54;;;;;;;12.15;9.65;;;17.50;75.80;;;;;;5098088;28;20031;-83
2023/05/14 02:21:19;;;;;;;12.68;9.65;;;17.50;76.20;;;;;;5114916;28;20092;-83
2023/05/14 02:23:47;;;;;;;15.60;9.85;;;17.40;76.30;;;;;;5116012;28;20080;-83
2023/05/14 02:26:12;;;;;;;12.77;9.27;;;17.40;76.30;;;;;;5114640;28;20481;-82
2023/05/14 02:28:38;;;;;;;13.13;9.50;;;17.40;76.20;;;;;;5097654;28;20185;-83
2023/05/14 02:31:04;;;;;;;17.92;9.57;;;17.40;75.90;;;;;;5097726;28;20141;-83
2023/05/14 02:33:30;;;;;;;11.88;9.68;;;17.40;76.00;;;;;;5114771;28;20028;-83
2023/05/14 02:35:55;;;;;;;12.20;9.55;;;17.30;76.20;;;;;;5097308;28;20048;-83
2023/05/14 02:38:22;;;;;;;12.13;9.55;;;17.20;76.40;;;;;;5097658;28;20036;-83
2023/05/14 02:40:47;;;;;;;13.18;9.70;;;17.10;76.80;;;;;;5080762;28;20030;-83
2023/05/14 02:43:13;;;;;;;17.20;10.40;;;17.10;77.00;;;;;;5097445;28;20031;-83
2023/05/14 02:45:38;;;;;;;13.00;9.15;;;17.10;76.90;;;;;;5114134;28;20080;-83
2023/05/14 02:48:04;;;;;;;13.48;9.57;;;17.10;77.00;;;;;;5097561;28;20036;-83
2023/05/14 02:50:30;;;;;;;13.05;10.07;;;17.10;77.10;;;;;;5113965;28;20028;-83
2023/05/14 02:52:55;;;;;;;14.35;10.20;;;17.10;77.10;;;;;;5097164;28;20031;-83
2023/05/14 02:55:22;;;;;;;14.82;9.30;;;17.10;76.90;;;;;;5097185;28;20514;-83
2023/05/14 02:57:48;;;;;;;14.18;10.32;;;17.10;76.80;;;;;;5115325;28;20072;-83
2023/05/14 03:00:14;;;;;;;13.68;9.48;;;17.00;76.80;;;;;;5080295;28;20027;-83
2023/05/14 03:02:39;;;;;;;15.55;9.45;;;17.00;76.90;;;;;;5096926;28;20023;-83
2023/05/14 03:05:05;;;;;;;14.30;9.52;;;16.90;77.00;;;;;;5096703;28;20028;-83
2023/05/14 03:07:31;;;;;;;12.63;9.43;;;16.90;76.90;;;;;;5096890;28;20033;-83
2023/05/14 03:09:59;;;;;;;15.07;10.63;;;16.80;76.80;;;;;;5113804;28;20031;-83
2023/05/14 03:12:24;;;;;;;13.73;10.02;;;16.80;76.80;;;;;;5080538;28;20484;-83
2023/05/14 03:14:50;;;;;;;15.85;9.75;;;16.70;76.90;;;;;;5097023;28;20035;-83
2023/05/14 03:17:16;;;;;;;12.77;9.00;;;16.70;77.20;;;;;;5115036;28;20026;-83
2023/05/14 03:19:41;;;;;;;16.35;9.95;;;16.60;77.10;;;;;;5079799;28;20518;-83
2023/05/14 03:22:07;;;;;;;13.02;9.90;;;16.50;77.30;;;;;;5096744;28;20418;-83
2023/05/14 03:24:33;;;;;;;14.80;10.73;;;16.50;77.40;;;;;;5113501;28;20035;-83
2023/05/14 03:26:59;;;;;;;13.60;10.32;;;16.40;77.40;;;;;;5096446;28;20042;-83
2023/05/14 03:29:25;;;;;;;17.35;9.85;;;16.40;77.30;;;;;;5113442;28;20012;-83
2023/05/14 03:31:50;;;;;;;15.85;10.07;;;16.40;77.30;;;;;;5113362;28;20107;-83
2023/05/14 03:34:16;;;;;;;14.77;9.70;;;16.40;77.40;;;;;;5079310;28;20020;-82
2023/05/14 03:36:42;;;;;;;16.08;10.18;;;16.30;77.30;;;;;;5096319;28;20059;-83
2023/05/14 03:39:08;;;;;;;23.75;11.68;;;16.30;77.20;;;;;;5096460;28;20096;-83
2023/05/14 03:41:34;;;;;;;14.23;10.07;;;16.20;77.40;;;;;;5096287;28;20036;-83
2023/05/14 03:44:00;;;;;;;18.13;11.23;;;16.20;77.60;;;;;;5113146;28;20015;-83
2023/05/14 03:46:26;;;;;;;14.25;10.80;;;16.10;78.10;;;;;;5113230;28;20046;-83
2023/05/14 03:48:51;;;;;;;17.75;10.75;;;16.00;78.40;;;;;;5096006;28;20035;-83
2023/05/14 03:51:17;;;;;;;15.38;10.52;;;16.00;78.40;;;;;;5079222;28;20032;-83
2023/05/14 03:53:43;;;;;;;16.30;10.63;;;15.90;78.30;;;;;;5095977;28;20024;-83
2023/05/14 03:56:09;;;;;;;14.93;11.10;;;15.90;78.30;;;;;;5096014;28;20396;-83
2023/05/14 03:58:34;;;;;;;15.32;10.10;;;15.80;78.70;;;;;;5096197;28;20020;-83
2023/05/14 04:01:00;;;;;;;13.43;10.02;;;15.80;78.90;;;;;;5079075;28;20395;-83
2023/05/14 04:03:25;;;;;;;16.45;10.55;;;15.80;78.80;;;;;;5112311;28;20027;-83
2023/05/14 04:05:51;;;;;;;14.20;10.18;;;15.80;78.50;;;;;;5112642;28;20085;-82
2023/05/14 04:08:17;;;;;;;15.77;10.10;;;15.80;78.20;;;;;;5095806;28;20051;-82
2023/05/14 04:10:42;;;;;;;17.08;10.73;;;15.70;78.20;;;;;;5112733;28;20059;-82
2023/05/14 04:13:08;;;;;;;14.38;9.70;;;15.70;78.40;;;;;;5095706;28;20032;-82
2023/05/14 04:15:38;;;;;;;15.13;10.63;;;15.70;78.60;;;;;;5095652;28;20030;-83
2023/05/14 04:18:04;;;;;;;14.77;10.32;;;15.70;78.40;;;;;;5096011;28;20389;-82
2023/05/14 04:20:29;;;;;;;13.95;10.07;;;15.70;78.30;;;;;;5112617;28;20020;-83
2023/05/14 04:22:55;;;;;;;15.15;10.32;;;15.70;78.10;;;;;;5112843;28;20031;-83
2023/05/14 04:25:21;;;;;;;13.52;9.90;;;15.70;78.00;;;;;;5112450;28;20028;-83
2023/05/14 04:27:46;;;;;;;14.25;10.18;;;15.60;78.00;;;;;;5078585;28;20072;-83
2023/05/14 04:30:12;;;;;;;15.30;10.52;;;15.60;78.30;;;;;;5078772;28;20024;-83
2023/05/14 04:32:39;;;;;;;14.30;10.55;;;15.50;78.70;;;;;;5095506;28;20026;-83
2023/05/14 04:35:06;;;;;;;14.07;10.68;;;15.50;78.70;;;;;;5095360;28;20114;-83
2023/05/14 04:37:31;;;;;;;15.25;10.25;;;15.50;78.90;;;;;;5112459;28;20027;-83
2023/05/14 04:39:57;;;;;;;16.65;10.70;;;15.50;79.30;;;;;;5095332;28;20028;-83
2023/05/14 04:42:23;;;;;;;18.98;12.13;;;15.50;79.80;;;;;;5095311;28;20020;-83
2023/05/14 04:44:50;;;;;;;16.40;11.85;;;15.50;80.20;;;;;;5095416;28;20076;-83
2023/05/14 04:47:15;;;;;;;19.30;11.88;;;15.50;80.40;;;;;;5078733;28;20423;-83
2023/05/14 04:49:42;;;;;;;19.02;12.50;;;15.60;80.60;;;;;;5112189;28;20114;-83
2023/05/14 04:52:08;;;;;;;16.80;11.02;;;15.60;80.80;;;;;;5095426;28;20035;-83
2023/05/14 04:54:33;;;;;;;16.58;11.52;;;15.60;80.90;;;;;;5111853;27;20039;-83
2023/05/14 04:57:02;;;;;;;16.55;11.02;;;15.60;81.00;;;;;;5115518;27;20030;-83
2023/05/14 04:59:30;;;;;;;18.13;11.65;;;15.70;81.00;;;;;;5099278;28;20023;-83
2023/05/14 05:01:56;;;;;;;17.52;11.35;;;15.70;81.70;;;;;;5116140;28;20038;-83
2023/05/14 05:04:22;;;;;;;17.98;11.45;;;15.80;81.10;;;;;;5136162;27;20027;-83
2023/05/14 05:06:49;;;;;;;17.15;11.15;;;15.70;81.30;;;;;;5115569;28;20020;-83
2023/05/14 05:09:16;;;;;;;16.65;11.30;;;15.80;81.50;;;;;;5132795;27;20471;-84
2023/05/14 05:11:41;;;;;;;18.48;11.88;;;15.80;81.40;;;;;;5132654;28;20026;-83
2023/05/14 05:14:07;;;;;;;19.70;11.27;;;15.90;81.30;;;;;;5133161;27;20019;-84
2023/05/14 05:16:33;;;;;;;21.42;12.25;;;15.80;81.30;;;;;;5136668;27;20027;-83
2023/05/14 05:18:58;;;;;;;18.73;11.82;;;15.90;81.40;;;;;;5119683;27;20118;-84
2023/05/14 05:21:24;;;;;;;18.10;12.00;;;15.80;81.50;;;;;;5102747;27;20023;-83
2023/05/14 05:23:50;;;;;;;18.80;12.18;;;15.80;81.50;;;;;;5102926;27;20391;-83
2023/05/14 05:26:15;;;;;;;19.23;13.75;;;15.90;81.60;;;;;;5119847;27;20027;-83
2023/05/14 05:28:41;;;;;;;19.05;12.20;;;15.90;81.70;;;;;;5119857;27;20114;-83
2023/05/14 05:31:07;;;;;;;18.45;12.43;;;15.90;81.70;;;;;;5102330;27;20051;-83
2023/05/14 05:33:33;;;;;;;19.10;12.43;;;15.90;81.80;;;;;;5119740;27;20026;-83
2023/05/14 05:35:59;;;;;;;18.45;12.15;;;15.90;81.90;;;;;;5136358;27;20062;-84
2023/05/14 05:38:25;;;;;;;19.02;11.85;;;15.90;81.90;;;;;;5136600;27;20023;-83
2023/05/14 05:40:51;;;;;;;17.67;11.05;;;16.00;81.90;;;;;;5136362;27;20122;-84
2023/05/14 05:43:17;;;;;;;19.10;11.95;;;16.00;82.00;;;;;;5136207;27;20020;-83
2023/05/14 05:45:42;;;;;;;20.95;12.35;;;16.00;82.90;;;;;;5118887;27;20031;-84
2023/05/14 05:48:08;;;;;;;17.10;11.40;;;16.00;82.10;;;;;;5119108;27;20031;-84
2023/05/14 05:50:34;;;;;;;17.40;12.13;;;16.10;82.20;;;;;;5101935;27;20024;-84
2023/05/14 05:53:00;;;;;;;18.58;12.18;;;16.10;82.40;;;;;;5137203;27;20384;-83
2023/05/14 05:55:25;;;;;;;22.02;12.80;;;16.10;82.20;;;;;;5118868;27;20468;-83
2023/05/14 05:57:51;;;;;;;20.13;12.57;;;16.20;82.10;;;;;;5101771;27;20432;-84
2023/05/14 06:00:17;;;;;;;20.70;11.95;;;16.20;82.20;;;;;;5118788;27;20019;-84
2023/05/14 06:02:43;;;;;;;19.13;12.30;;;16.20;82.40;;;;;;5118858;27;20391;-84
2023/05/14 06:05:09;;;;;;;19.55;12.50;;;16.20;82.30;;;;;;5118456;27;20030;-84
2023/05/14 06:07:35;;;;;;;18.17;12.10;;;16.20;82.10;;;;;;5118573;27;20019;-83
2023/05/14 06:10:01;;;;;;;18.23;12.30;;;16.20;82.10;;;;;;5134974;27;20081;-83
2023/05/14 06:12:27;;;;;;;18.90;11.98;;;16.20;82.20;;;;;;5134639;27;20015;-84
2023/05/14 06:14:54;;;;;;;20.83;12.65;;;16.20;82.30;;;;;;5118110;27;20571;-84
2023/05/14 06:17:20;;;;;;;23.15;12.77;;;16.30;82.40;;;;;;5135424;27;20031;-83
2023/05/14 06:19:46;;;;;;;18.70;12.00;;;16.30;82.50;;;;;;5134391;27;20473;-84
2023/05/14 06:22:11;;;;;;;18.48;12.45;;;16.30;83.30;;;;;;5117852;27;20042;-83
2023/05/14 06:24:37;;;;;;;20.80;12.73;;;16.30;82.50;;;;;;5118567;27;20027;-84
2023/05/14 06:27:03;;;;;;;20.45;12.32;;;16.40;83.40;;;;;;5101043;27;20476;-84
2023/05/14 06:29:28;;;;;;;20.98;13.45;;;16.40;82.60;;;;;;5101541;27;20023;-83
2023/05/14 06:32:00;;;;;;;20.10;13.27;;;16.40;82.70;;;;;;5101914;27;20111;-84
2023/05/14 06:34:25;;;;;;;18.60;12.90;;;16.40;82.90;;;;;;5135245;27;20369;-83
2023/05/14 06:36:51;;;;;;;21.30;13.70;;;16.50;82.90;;;;;;5101520;27;20049;-83
2023/05/14 06:39:17;;;;;;;21.27;13.73;;;16.50;82.20;;;;;;5100948;27;20123;-83
2023/05/14 06:41:42;;;;;;;23.70;14.10;;;16.50;83.10;;;;;;5101093;27;20027;-83
2023/05/14 06:44:08;;;;;;;18.80;13.30;;;16.50;83.10;;;;;;5101462;27;20042;-83
2023/05/14 06:46:34;;;;;;;19.48;13.27;;;16.50;82.80;;;;;;5135024;27;20030;-83
2023/05/14 06:48:59;;;;;;;21.38;13.65;;;16.50;83.10;;;;;;5117923;27;20058;-83
2023/05/14 06:51:25;;;;;;;23.02;14.13;;;16.60;83.10;;;;;;5117836;27;20527;-83
2023/05/14 06:53:51;;;;;;;19.77;13.65;;;16.60;83.10;;;;;;5134815;27;20038;-84
2023/05/14 06:56:17;;;;;;;19.48;12.75;;;16.60;83.20;;;;;;5134573;27;20068;-84
2023/05/14 06:58:42;;;;;;;20.90;13.25;;;16.60;83.20;;;;;;5134468;27;20027;-83
2023/05/14 07:01:08;;;;;;;23.10;14.43;;;16.70;83.10;;;;;;5117503;27;20063;-83
2023/05/14 07:03:34;;;;;;;17.27;13.02;;;16.70;82.90;;;;;;5116574;27;20030;-84
2023/05/14 07:05:59;;;;;;;19.60;13.00;;;16.70;83.00;;;;;;5116913;27;20035;-83
2023/05/14 07:08:25;;;;;;;20.80;13.63;;;16.80;83.10;;;;;;5117158;27;20114;-84
2023/05/14 07:10:51;;;;;;;17.60;13.23;;;16.80;83.10;;;;;;5117323;27;20118;-84
2023/05/14 07:13:16;;;;;;;26.42;12.73;;;16.80;83.20;;;;;;5100756;27;20023;-83
2023/05/14 07:15:42;;;;;;;20.08;13.15;;;16.90;83.10;;;;;;5116427;27;20023;-83
2023/05/14 07:18:07;;;;;;;22.88;12.90;;;16.90;83.10;;;;;;5099180;27;20023;-83
2023/05/14 07:20:33;;;;;;;17.90;12.23;;;16.90;83.10;;;;;;5116507;27;20027;-83
2023/05/14 07:22:59;;;;;;;18.73;12.05;;;17.00;82.80;;;;;;5116793;27;20038;-83
2023/05/14 07:25:24;;;;;;;20.15;12.52;;;17.00;82.50;;;;;;5115133;27;20016;-83
2023/05/14 07:27:50;;;;;;;20.10;11.82;;;17.10;82.30;;;;;;5116336;27;20076;-83
2023/05/14 07:30:16;;;;;;;18.60;12.23;;;17.10;82.20;;;;;;5099883;27;20022;-83
2023/05/14 07:32:41;;;;;;;18.80;11.98;;;17.10;82.30;;;;;;5128615;27;20020;-84
2023/05/14 07:35:07;;;;;;;21.63;12.23;;;17.20;82.10;;;;;;5096389;28;20208;-84
2023/05/14 07:37:33;;;;;;;22.77;12.52;;;17.20;81.90;;;;;;5113414;28;20072;-84
2023/05/14 07:39:59;;;;;;;22.65;12.35;;;17.20;82.00;;;;;;5096619;28;20031;-83
2023/05/14 07:42:25;;;;;;;20.52;12.48;;;17.30;82.10;;;;;;5114922;28;20537;-83
2023/05/14 07:44:51;;;;;;;18.33;12.40;;;17.40;82.10;;;;;;5113996;28;20076;-84
2023/05/14 07:47:17;;;;;;;19.48;12.60;;;17.40;82.00;;;;;;5114898;28;20114;-84
2023/05/14 07:49:42;;;;;;;19.17;13.00;;;17.40;81.70;;;;;;5114062;28;20106;-84
2023/05/14 07:52:08;;;;;;;21.23;12.50;;;17.50;81.40;;;;;;5097020;28;20022;-84
2023/05/14 07:54:33;;;;;;;18.60;12.00;;;17.50;81.20;;;;;;5096625;28;20028;-84
2023/05/14 07:56:59;;;;;;;20.42;12.77;;;17.60;81.40;;;;;;5096671;28;20123;-83
2023/05/14 07:59:25;;;;;;;20.25;12.73;;;17.60;81.40;;;;;;5096444;28;20115;-84
2023/05/14 08:01:50;;;;;;;22.27;13.75;;;17.70;81.30;;;;;;5096200;28;20391;-84
2023/05/14 08:04:16;;;;;;;20.33;12.65;;;17.80;81.10;;;;;;5096504;28;20031;-84
2023/05/14 08:06:42;;;;;;;19.13;12.63;;;17.90;80.70;;;;;;5096273;28;20027;-84
2023/05/14 08:09:08;;;;;;;20.23;11.48;;;17.90;80.20;;;;;;5095931;28;20545;-84
2023/05/14 08:11:34;;;;;;;18.92;11.55;;;18.00;80.80;;;;;;5095892;28;20020;-84
2023/05/14 08:14:00;;;;;;;19.20;11.70;;;18.00;79.60;;;;;;5096025;28;20023;-84
2023/05/14 08:16:26;;;;;;;17.40;11.85;;;18.00;79.70;;;;;;5111529;28;20134;-83
2023/05/14 08:18:51;;;;;;;17.60;12.05;;;18.10;80.10;;;;;;5078778;28;20081;-84
2023/05/14 08:21:17;;;;;;;18.10;11.88;;;18.20;79.90;;;;;;5112655;28;20037;-84
2023/05/14 08:23:43;;;;;;;20.55;12.27;;;18.30;79.50;;;;;;5078719;28;20062;-84
2023/05/14 08:26:08;;;;;;;18.00;11.93;;;18.30;79.50;;;;;;5096309;28;20034;-84
2023/05/14 08:28:34;;;;;;;19.70;11.27;;;18.40;79.60;;;;;;5096880;28;20439;-83
2023/05/14 08:30:59;;;;;;;16.33;11.32;;;18.50;79.50;;;;;;5079531;28;20491;-84
2023/05/14 08:33:25;;;;;;;18.60;11.98;;;18.50;79.10;;;;;;5096090;28;20027;-84
2023/05/14 08:35:52;;;;;;;17.40;11.80;;;18.60;79.20;;;;;;5079133;28;20044;-84
2023/05/14 08:38:18;;;;;;;18.08;11.55;;;18.60;78.90;;;;;;5096155;28;20043;-84
2023/05/14 08:41:11;;;;;;;18.20;11.95;;;18.70;78.70;;;;;;5095657;28;20020;-84
2023/05/14 08:44:01;;;;;;;17.95;11.65;;;18.80;78.70;;;;;;5110499;28;20131;-84
2023/05/14 08:46:28;;;;;;;18.02;12.52;;;18.80;78.30;;;;;;5112762;28;20509;-84
2023/05/14 08:49:03;;;;;;;19.33;12.00;;;18.80;78.20;;;;;;5112705;28;20023;-84
2023/05/14 08:51:28;;;;;;;17.77;11.75;;;18.90;78.10;;;;;;5112297;28;20030;-84
2023/05/14 08:53:56;;;;;;;18.33;10.80;;;19.00;78.00;;;;;;5095437;28;20020;-84
2023/05/14 08:56:23;;;;;;;15.95;10.50;;;19.00;77.90;;;;;;5112127;28;20443;-83
2023/05/14 08:58:49;;;;;;;15.23;10.57;;;19.10;78.00;;;;;;5112459;28;20526;-84
2023/05/14 09:01:15;;;;;;;16.60;11.60;;;19.20;77.80;;;;;;5078579;28;20031;-83
2023/05/14 09:03:42;;;;;;;17.80;11.80;;;19.20;77.40;;;;;;5096239;28;20468;-83
2023/05/14 09:06:08;;;;;;;18.77;12.65;;;19.30;77.10;;;;;;5113774;28;20263;-83
2023/05/14 09:08:35;;;;;;;16.83;11.02;;;19.30;77.10;;;;;;5094941;28;20023;-84
2023/05/14 09:11:01;;;;;;;19.20;11.55;;;19.40;77.50;;;;;;5078381;28;20028;-84
2023/05/14 09:13:26;;;;;;;16.13;11.07;;;19.50;77.80;;;;;;5112245;28;20438;-84
2023/05/14 09:15:53;;;;;;;18.63;11.77;;;19.50;77.30;;;;;;5095694;28;20024;-84
2023/05/14 09:18:18;;;;;;;16.90;11.50;;;19.60;77.10;;;;;;5078687;28;20136;-83
2023/05/14 09:20:46;;;;;;;18.35;11.45;;;19.70;77.30;;;;;;5078447;28;20161;-83
2023/05/14 09:23:11;;;;;;;17.38;12.02;;;19.80;76.90;;;;;;5113293;28;20024;-83
2023/05/14 09:25:37;;;;;;;17.75;11.43;;;19.80;76.60;;;;;;5095020;28;20031;-83
2023/05/14 09:28:07;;;;;;;21.95;11.65;;;19.80;76.50;;;;;;5078482;28;20387;-84
2023/05/14 09:30:36;;;;;;;17.52;10.60;;;19.90;76.30;;;;;;5111881;28;20038;-84
2023/05/14 09:33:02;;;;;;;20.10;11.45;;;19.90;76.40;;;;;;5079042;28;20384;-83
2023/05/14 09:35:28;;;;;;;16.80;11.30;;;20.00;76.70;;;;;;5078292;28;20143;-84
2023/05/14 09:37:54;;;;;;;16.33;10.85;;;20.10;76.10;;;;;;5111929;28;20030;-84
2023/05/14 09:40:22;;;;;;;17.83;11.73;;;20.10;75.90;;;;;;5112245;28;20045;-84
2023/05/14 09:42:48;;;;;;;17.65;11.35;;;20.10;75.80;;;;;;5111775;28;20024;-84
2023/05/14 09:45:15;;;;;;;17.33;10.88;;;20.20;75.00;;;;;;5096181;28;20118;-83
2023/05/14 09:47:41;;;;;;;18.52;11.50;;;20.20;75.20;;;;;;5112160;28;20038;-83
2023/05/14 09:50:07;;;;;;;15.55;10.98;;;20.30;75.30;;;;;;5095049;28;20396;-84
2023/05/14 09:52:33;;;;;;;17.30;11.50;;;20.30;74.90;;;;;;5112476;28;20016;-84
2023/05/14 09:55:00;;;;;;;16.88;11.20;;;20.40;74.60;;;;;;5094923;28;20089;-83
2023/05/14 09:57:26;;;;;;;15.55;10.57;;;20.50;74.20;;;;;;5111614;28;20034;-84
2023/05/14 09:59:52;;;;;;;17.08;11.30;;;20.50;74.50;;;;;;5095191;28;20028;-84
2023/05/14 10:02:22;;;;;;;16.83;11.27;;;20.60;74.20;;;;;;5098620;28;20060;-84
2023/05/14 10:04:50;;;;;;;15.98;10.50;;;20.70;73.80;;;;;;5115721;28;20084;-83
2023/05/14 10:07:22;;;;;;;16.10;10.73;;;20.80;73.30;;;;;;5116634;28;20053;-84
2023/05/14 10:09:47;;;;;;;14.50;10.63;;;20.80;74.30;;;;;;5115563;28;20098;-84
2023/05/14 10:12:15;;;;;;;14.95;10.05;;;20.90;72.50;;;;;;5115380;28;20048;-84
2023/05/14 10:14:52;;;;;;;13.90;10.07;;;20.90;72.40;;;;;;5115456;28;20024;-83
2023/05/14 10:17:20;;;;;;;15.32;10.57;;;21.00;72.20;;;;;;5116545;28;20165;-84
2023/05/14 10:19:55;;;;;;;15.40;10.75;;;21.10;72.10;;;;;;5115406;28;20031;-84
2023/05/14 10:22:29;;;;;;;15.05;10.32;;;21.20;71.80;;;;;;5115558;27;20016;-84
2023/05/14 10:24:55;;;;;;;16.05;9.98;;;21.30;71.70;;;;;;5115320;27;20374;-84
2023/05/14 10:27:22;;;;;;;17.30;10.70;;;21.30;71.20;;;;;;5098477;28;20084;-84
2023/05/14 10:29:55;;;;;;;14.93;9.93;;;21.30;70.70;;;;;;5081313;28;20537;-83
2023/05/14 10:32:25;;;;;;;16.05;10.38;;;21.30;70.60;;;;;;5115246;28;20047;-83
2023/05/14 10:34:52;;;;;;;13.27;9.65;;;21.40;70.30;;;;;;5098285;28;20036;-83
2023/05/14 10:37:25;;;;;;;13.85;9.98;;;21.50;70.60;;;;;;5114658;28;20052;-84
2023/05/14 10:39:52;;;;;;;13.68;8.77;;;21.60;69.80;;;;;;5116025;28;20034;-84
2023/05/14 10:42:26;;;;;;;12.18;8.90;;;21.70;70.50;;;;;;5114948;28;20030;-84
2023/05/14 10:44:57;;;;;;;11.50;8.38;;;21.80;70.20;;;;;;5115288;28;20024;-84
2023/05/14 10:47:30;;;;;;;11.97;8.67;;;21.80;68.40;;;;;;5098790;28;20023;-84
2023/05/14 10:49:58;;;;;;;11.82;7.95;;;21.90;67.20;;;;;;5114752;28;20026;-83
2023/05/14 10:52:25;;;;;;;10.93;7.57;;;21.90;68.60;;;;;;5114799;28;20084;-84
2023/05/14 10:54:55;;;;;;;10.45;7.68;;;22.00;67.80;;;;;;5098259;28;20047;-84
2023/05/14 10:57:25;;;;;;;12.98;7.63;;;22.00;68.60;;;;;;5081414;28;20081;-84
2023/05/14 10:59:56;;;;;;;9.63;7.50;;;22.20;68.80;;;;;;5098867;28;20527;-84
2023/05/14 11:02:26;;;;;;;11.80;7.70;;;22.30;67.10;;;;;;5115371;28;20491;-84
2023/05/14 11:04:58;;;;;;;9.55;7.15;;;22.40;65.70;;;;;;5081583;28;20053;-84
2023/05/14 11:07:28;;;;;;;9.35;6.97;;;22.40;65.60;;;;;;5115595;28;20456;-84
2023/05/14 11:10:00;;;;;;;13.27;7.57;;;22.50;65.90;;;;;;5114570;28;20051;-85
2023/05/14 11:12:27;;;;;;;10.75;8.00;;;22.60;65.50;;;;;;5114502;28;20024;-84
2023/05/14 11:14:55;;;;;;;9.52;7.30;;;22.60;63.70;;;;;;5098593;28;20023;-84
2023/05/14 11:17:21;;;;;;;9.00;6.45;;;22.60;63.70;;;;;;5098169;28;20035;-84
2023/05/14 11:19:46;;;;;;;7.65;5.78;;;22.70;62.60;;;;;;5115151;28;20024;-84
2023/05/14 11:22:13;;;;;;;9.40;7.35;;;22.70;61.50;;;;;;5097593;28;20123;-84
2023/05/14 11:24:42;;;;;;;9.48;7.38;;;22.70;61.00;;;;;;5097224;28;20032;-84
2023/05/14 11:27:08;;;;;;;11.90;7.22;;;22.70;60.90;;;;;;5082062;28;20020;-84
2023/05/14 11:29:37;;;;;;;11.07;7.63;;;22.80;61.60;;;;;;5114612;28;20503;-84
2023/05/14 11:32:06;;;;;;;10.52;7.25;;;22.80;60.70;;;;;;5114563;28;20015;-84
2023/05/14 11:34:36;;;;;;;10.43;6.85;;;22.80;60.60;;;;;;5097321;28;20034;-83
2023/05/14 11:37:06;;;;;;;8.82;6.85;;;22.90;61.60;;;;;;5114398;28;20055;-83
2023/05/14 11:39:32;;;;;;;8.02;6.65;;;23.00;61.60;;;;;;5114880;28;20034;-83
2023/05/14 11:41:58;;;;;;;7.65;6.05;;;23.10;61.30;;;;;;5115940;28;20015;-84
2023/05/14 11:44:24;;;;;;;8.30;6.95;;;23.20;62.50;;;;;;5113825;28;20024;-83
2023/05/14 11:46:57;;;;;;;8.20;6.35;;;23.30;62.60;;;;;;5081004;28;20507;-84
2023/05/14 11:49:24;;;;;;;8.10;6.43;;;23.40;62.60;;;;;;5097542;28;20023;-83
2023/05/14 11:51:59;;;;;;;8.63;6.55;;;23.50;61.30;;;;;;5115249;28;20030;-83
2023/05/14 11:54:30;;;;;;;9.02;5.50;;;23.60;61.10;;;;;;5114340;28;20022;-84
2023/05/14 11:56:57;;;;;;;7.85;5.63;;;23.60;59.00;;;;;;5114047;28;20493;-83
2023/05/14 11:59:24;;;;;;;7.85;6.00;;;23.70;59.50;;;;;;5114269;28;20362;-83
2023/05/14 12:01:51;;;;;;;6.68;5.70;;;23.70;57.90;;;;;;5115260;28;20028;-83
2023/05/14 12:04:21;;;;;;;7.70;5.63;;;23.70;57.80;;;;;;5096655;28;20035;-83
2023/05/14 12:06:50;;;;;;;7.80;6.07;;;23.70;58.80;;;;;;5097490;28;20027;-83
2023/05/14 12:09:17;;;;;;;11.65;6.75;;;23.80;58.50;;;;;;5115475;28;20028;-84
2023/05/14 12:11:46;;;;;;;11.05;6.47;;;23.90;59.30;;;;;;5097256;28;20497;-83
2023/05/14 12:14:20;;;;;;;8.93;6.28;;;23.90;57.60;;;;;;5113390;28;20030;-84
2023/05/14 12:16:46;;;;;;;8.95;5.93;;;23.90;57.70;;;;;;5113624;28;20031;-84
2023/05/14 12:19:16;;;;;;;6.97;5.53;;;23.90;57.80;;;;;;5096946;28;20262;-84
2023/05/14 12:21:44;;;;;;;7.35;5.70;;;24.00;56.10;;;;;;5096768;28;20038;-84
2023/05/14 12:24:11;;;;;;;6.40;5.30;;;24.00;55.90;;;;;;5112650;28;20515;-84
2023/05/14 12:26:37;;;;;;;6.38;5.10;;;24.10;55.50;;;;;;5096196;28;20028;-84
2023/05/14 12:29:05;;;;;;;8.60;5.05;;;24.20;55.20;;;;;;5096330;28;20087;-84
2023/05/14 12:31:35;;;;;;;6.07;5.18;;;24.30;54.20;;;;;;5113168;28;20016;-84